Time;durP1;ratioP1;P1;durP2;ratioP2;P2;SDS_P1;SDS_P2;PMS_P1;PMS_P2;Temp;Humidity;BMP_temperature;BMP_pressure;BME280_temperature;BME280_humidity;BME280_pressure;Samples;Min_cycle;Max_cycle;Signal;HPM_P1;HPM_P2
2021/04/04 00:01:08;;;;;;;18.08;4.45;;;;;;;5.22;71.68;102248.38;5026037;28;20128;-80
2021/04/04 00:03:34;;;;;;;19.73;5.13;;;;;;;5.19;72.25;102246.75;5007417;28;20127;-85
2021/04/04 00:06:00;;;;;;;16.42;4.40;;;;;;;5.23;72.51;102247.41;5022457;28;20065;-86
2021/04/04 00:08:26;;;;;;;18.52;4.45;;;;;;;5.16;72.63;102233.63;5026294;28;20570;-89
2021/04/04 00:10:52;;;;;;;19.83;4.70;;;;;;;5.17;73.25;102242.47;5045457;28;20299;-82
2021/04/04 00:13:17;;;;;;;17.25;4.50;;;;;;;5.16;73.13;102236.31;5027931;28;20425;-85
2021/04/04 00:15:43;;;;;;;16.45;4.22;;;;;;;5.17;73.12;102238.00;5026243;28;20045;-81
2021/04/04 00:18:09;;;;;;;15.00;4.00;;;;;;;5.23;73.71;102238.59;5030077;28;20052;-84
2021/04/04 00:20:35;;;;;;;18.80;4.88;;;;;;;5.17;72.87;102237.16;5038515;28;20049;-84
2021/04/04 00:23:00;;;;;;;17.08;4.28;;;;;;;5.16;73.50;102236.31;5030409;28;20155;-82
2021/04/04 00:25:26;;;;;;;20.17;4.65;;;;;;;5.15;73.71;102231.94;5029809;28;20053;-84
2021/04/04 00:27:53;;;;;;;20.25;5.20;;;;;;;5.22;73.62;102226.22;5029279;28;20152;-88
2021/04/04 00:30:21;;;;;;;14.63;3.47;;;;;;;5.17;73.03;102222.03;5020521;28;20046;-88
2021/04/04 00:32:48;;;;;;;19.15;4.40;;;;;;;5.13;73.04;102230.31;5026807;28;20064;-83
2021/04/04 00:35:16;;;;;;;24.73;4.97;;;;;;;5.11;72.13;102230.41;5027175;28;20455;-83
2021/04/04 00:37:43;;;;;;;19.08;4.78;;;;;;;5.13;72.94;102225.84;5017805;28;20529;-80
2021/04/04 00:40:17;;;;;;;18.63;4.53;;;;;;;5.16;73.34;102224.81;5024060;28;20111;-81
2021/04/04 00:42:44;;;;;;;15.38;4.07;;;;;;;5.14;72.74;102222.22;5014024;28;20042;-80
2021/04/04 00:45:17;;;;;;;17.10;3.85;;;;;;;5.12;72.56;102220.59;5006252;28;20502;-84
2021/04/04 00:47:43;;;;;;;17.58;3.92;;;;;;;5.09;72.86;102213.69;5039592;28;20163;-82
2021/04/04 00:50:10;;;;;;;19.50;3.85;;;;;;;5.08;73.01;102211.97;5025116;28;20628;-82
2021/04/04 00:52:37;;;;;;;15.18;3.85;;;;;;;5.08;73.10;102211.97;5024537;28;20049;-80
2021/04/04 00:55:06;;;;;;;23.63;5.55;;;;;;;5.04;73.14;102217.59;5023875;28;20049;-86
2021/04/04 00:57:34;;;;;;;18.70;3.88;;;;;;;5.06;73.50;102219.16;5023783;28;20481;-80
2021/04/04 01:00:05;;;;;;;15.20;4.18;;;;;;;5.07;73.09;102217.41;5043117;28;20501;-85
2021/04/04 01:02:31;;;;;;;15.15;4.38;;;;;;;5.08;73.51;102219.09;5019653;28;20409;-86
2021/04/04 01:04:59;;;;;;;14.30;4.45;;;;;;;5.02;73.18;102217.66;5024981;28;20045;-86
2021/04/04 01:07:24;;;;;;;14.95;4.70;;;;;;;5.03;73.73;102214.03;5025496;28;20045;-82
2021/04/04 01:09:50;;;;;;;13.77;3.72;;;;;;;5.03;73.27;102216.69;5040810;28;20115;-81
2021/04/04 01:12:22;;;;;;;14.07;4.00;;;;;;;5.02;74.19;102209.69;5034889;28;20524;-82
2021/04/04 01:14:59;;;;;;;20.08;4.80;;;;;;;5.01;74.46;102210.63;5023522;28;20474;-79
2021/04/04 01:17:27;;;;;;;25.67;4.35;;;;;;;4.94;74.34;102214.59;5025721;28;20045;-83
2021/04/04 01:20:08;;;;;;;20.63;4.78;;;;;;;4.95;73.97;102206.53;5027388;28;20120;-81
2021/04/04 01:22:55;;;;;;;13.18;3.58;;;;;;;4.93;74.73;102212.91;5035362;28;20398;-84
2021/04/04 01:26:08;;;;;;;13.73;4.13;;;;;;;4.93;74.53;102215.56;5014184;28;20065;-83
2021/04/04 01:28:39;;;;;;;12.65;3.40;;;;;;;4.94;74.19;102214.59;4999561;28;20089;-83
2021/04/04 01:31:09;;;;;;;14.55;4.03;;;;;;;4.96;75.18;102204.72;5022886;28;20037;-77
2021/04/04 01:33:36;;;;;;;17.65;4.15;;;;;;;5.01;74.74;102204.47;5025451;28;20041;-79
2021/04/04 01:36:07;;;;;;;12.77;4.03;;;;;;;4.93;74.54;102207.59;5028455;28;20048;-79
2021/04/04 01:38:41;;;;;;;14.60;4.47;;;;;;;4.98;75.60;102206.34;5039843;28;20045;-76
2021/04/04 01:41:18;;;;;;;16.98;4.05;;;;;;;4.98;75.79;102206.34;5011900;28;20049;-81
2021/04/04 01:43:46;;;;;;;15.93;4.10;;;;;;;4.98;76.13;102205.50;5026153;28;20099;-81
2021/04/04 01:46:14;;;;;;;16.40;4.00;;;;;;;5.02;76.41;102208.81;5027391;28;20040;-81
2021/04/04 01:48:42;;;;;;;26.33;5.40;;;;;;;5.01;75.84;102202.66;5023608;28;20057;-83
2021/04/04 01:51:10;;;;;;;17.25;3.85;;;;;;;5.02;76.33;102199.03;5032846;28;20054;-83
2021/04/04 01:53:44;;;;;;;17.02;4.00;;;;;;;4.98;76.42;102195.72;5027715;28;20053;-83
2021/04/04 01:56:09;;;;;;;15.88;4.32;;;;;;;5.01;76.71;102205.31;5026025;28;20064;-84
2021/04/04 01:58:38;;;;;;;19.60;4.05;;;;;;;5.06;76.89;102192.56;5024951;28;20053;-83
2021/04/04 02:01:05;;;;;;;13.60;3.75;;;;;;;5.07;76.91;102194.28;5027112;28;20045;-83
2021/04/04 02:03:31;;;;;;;15.65;4.18;;;;;;;5.04;76.67;102193.63;5024964;28;20047;-77
2021/04/04 02:05:59;;;;;;;17.40;3.97;;;;;;;4.98;76.69;102194.88;5023812;28;20029;-82
2021/04/04 02:08:34;;;;;;;11.02;3.70;;;;;;;4.99;77.12;102199.22;5025579;28;20390;-82
2021/04/04 02:11:00;;;;;;;15.77;4.78;;;;;;;4.96;77.57;102196.75;5024783;28;20052;-86
2021/04/04 02:13:27;;;;;;;13.32;3.75;;;;;;;4.95;77.64;102200.38;5008952;28;20049;-84
2021/04/04 02:15:58;;;;;;;16.25;4.03;;;;;;;4.93;77.82;102188.97;5024768;28;20049;-80
2021/04/04 02:18:23;;;;;;;17.05;4.50;;;;;;;4.95;77.84;102195.06;5025843;28;20065;-84
2021/04/04 02:20:54;;;;;;;14.90;4.50;;;;;;;4.91;78.06;102191.69;5023070;28;20076;-81
2021/04/04 02:23:20;;;;;;;14.02;3.88;;;;;;;4.88;78.41;102191.88;5015168;28;20128;-81
2021/04/04 02:25:45;;;;;;;12.90;4.30;;;;;;;4.94;78.96;102178.22;5009023;28;20057;-84
2021/04/04 02:28:13;;;;;;;10.98;4.00;;;;;;;4.97;78.49;102183.34;5004772;28;20053;-79
2021/04/04 02:30:38;;;;;;;16.75;4.47;;;;;;;4.91;78.37;102180.22;5021313;28;20080;-83
2021/04/04 02:33:15;;;;;;;20.63;4.40;;;;;;;4.93;77.95;102183.66;5026414;28;20483;-82
2021/04/04 02:35:44;;;;;;;15.18;4.30;;;;;;;4.91;78.89;102188.19;5027614;28;20053;-87
2021/04/04 02:38:22;;;;;;;18.48;4.70;;;;;;;4.96;78.62;102188.78;5028456;28;20124;-80
2021/04/04 02:40:50;;;;;;;14.93;4.40;;;;;;;4.95;79.33;102179.09;5014507;28;20544;-78
2021/04/04 02:43:20;;;;;;;17.58;5.03;;;;;;;4.96;79.33;102175.47;5007769;28;20050;-83
2021/04/04 02:45:50;;;;;;;12.27;4.05;;;;;;;4.94;79.59;102177.38;5023643;28;20125;-80
2021/04/04 02:48:17;;;;;;;18.65;4.30;;;;;;;4.90;79.28;102173.19;5036676;28;20043;-85
2021/04/04 02:50:48;;;;;;;16.02;3.90;;;;;;;4.93;79.80;102171.19;5046867;28;20045;-88
2021/04/04 02:53:14;;;;;;;12.23;4.35;;;;;;;4.92;80.22;102173.94;5026052;28;20038;-80
2021/04/04 02:55:41;;;;;;;15.70;4.97;;;;;;;4.93;80.32;102165.88;5023034;28;20041;-78
2021/04/04 02:58:08;;;;;;;20.77;4.70;;;;;;;4.92;80.27;102168.59;5032478;28;20169;-80
2021/04/04 03:00:39;;;;;;;12.15;4.13;;;;;;;4.93;80.12;102165.03;5028403;28;20044;-83
2021/04/04 03:03:07;;;;;;;14.68;4.40;;;;;;;4.94;79.97;102172.03;5024739;28;20042;-84
2021/04/04 03:05:35;;;;;;;14.60;4.30;;;;;;;4.88;79.80;102164.44;5022685;28;20131;-83
2021/04/04 03:08:03;;;;;;;19.00;4.35;;;;;;;4.91;79.57;102166.91;5022065;28;20041;-80
2021/04/04 03:10:33;;;;;;;23.70;4.50;;;;;;;4.91;80.09;102161.59;5026061;28;20501;-83
2021/04/04 03:13:00;;;;;;;13.70;3.92;;;;;;;4.90;80.23;102165.22;5023000;28;20234;-85
2021/04/04 03:15:33;;;;;;;12.05;4.13;;;;;;;4.90;79.85;102160.75;5014317;28;20500;-82
2021/04/04 03:18:00;;;;;;;13.07;4.22;;;;;;;4.98;80.63;102161.13;5025804;28;20060;-86
2021/04/04 03:20:27;;;;;;;18.73;4.88;;;;;;;4.89;80.21;102164.34;5018791;28;20042;-76
2021/04/04 03:22:55;;;;;;;14.70;4.15;;;;;;;4.93;80.32;102162.34;5013677;28;20076;-83
2021/04/04 03:25:22;;;;;;;14.18;4.40;;;;;;;4.83;80.44;102158.53;5040202;28;20037;-78
2021/04/04 03:27:49;;;;;;;13.27;3.85;;;;;;;4.85;80.52;102156.66;5027744;28;20072;-85
2021/04/04 03:30:35;;;;;;;10.98;4.20;;;;;;;4.92;80.61;102160.63;5024774;28;20041;-84
2021/04/04 03:33:04;;;;;;;20.77;5.32;;;;;;;4.95;80.64;102157.81;4992746;28;20049;-80
2021/04/04 03:35:31;;;;;;;16.60;4.50;;;;;;;4.94;81.17;102162.25;5015398;28;20048;-84
2021/04/04 03:38:05;;;;;;;15.60;3.65;;;;;;;4.97;80.82;102158.53;5029292;28;20407;-84
2021/04/04 03:40:32;;;;;;;15.52;4.55;;;;;;;4.86;81.23;102158.34;5025554;28;20056;-83
2021/04/04 03:43:02;;;;;;;13.07;4.28;;;;;;;4.87;81.07;102152.94;5045877;28;20060;-84
2021/04/04 03:45:28;;;;;;;;;;;;;;;4.84;80.97;102144.31;5026288;28;20077;-78
2021/04/04 03:47:53;;;;;;;12.57;3.70;;;;;;;4.82;81.68;102140.88;5026105;28;19971;-81
2021/04/04 03:50:22;;;;;;;14.45;4.10;;;;;;;4.78;81.15;102144.69;5026042;28;20699;-77
2021/04/04 03:52:49;;;;;;;13.70;4.15;;;;;;;4.84;81.60;102139.00;5019594;28;20089;-81
2021/04/04 03:55:20;;;;;;;15.63;4.97;;;;;;;4.85;81.53;102146.84;5011962;28;20124;-79
2021/04/04 03:57:48;;;;;;;15.40;4.20;;;;;;;4.93;81.88;102149.06;5024567;28;20081;-80
2021/04/04 04:00:19;;;;;;;17.10;4.75;;;;;;;4.94;82.01;102156.06;5025636;28;20025;-84
2021/04/04 04:02:46;;;;;;;13.52;4.45;;;;;;;4.80;82.30;102148.09;5024989;28;20045;-89
2021/04/04 04:05:13;;;;;;;17.48;4.75;;;;;;;4.82;82.51;102146.19;5025231;28;20045;-80
2021/04/04 04:07:40;;;;;;;12.32;4.70;;;;;;;4.91;82.30;102150.94;5006567;28;20053;-79
2021/04/04 04:10:07;;;;;;;21.02;4.57;;;;;;;4.87;82.50;102150.28;5024027;28;20042;-87
2021/04/04 04:12:34;;;;;;;12.60;4.07;;;;;;;4.84;82.19;102144.31;5023014;28;20072;-81
2021/04/04 04:15:00;;;;;;;15.52;4.18;;;;;;;4.81;82.37;102144.50;5006812;28;20048;-82
2021/04/04 04:17:26;;;;;;;15.20;5.03;;;;;;;4.80;82.50;102138.31;5024458;28;20045;-77
2021/04/04 04:19:57;;;;;;;11.27;4.50;;;;;;;4.79;82.71;102141.91;5042893;28;20552;-84
2021/04/04 04:22:22;;;;;;;16.70;4.50;;;;;;;4.82;82.51;102140.88;5026975;28;20051;-82
2021/04/04 04:24:53;;;;;;;16.90;4.18;;;;;;;4.77;82.45;102140.31;5042458;28;20041;-84
2021/04/04 04:27:22;;;;;;;13.95;4.13;;;;;;;4.73;82.11;102137.81;5025749;28;20045;-79
2021/04/04 04:29:50;;;;;;;14.35;4.65;;;;;;;4.77;83.11;102137.63;5018864;28;20128;-83
2021/04/04 04:32:22;;;;;;;14.07;4.63;;;;;;;4.86;82.77;102137.06;5020064;28;20042;-80
2021/04/04 04:34:50;;;;;;;18.27;4.53;;;;;;;4.81;82.54;102139.19;5041205;28;20104;-84
2021/04/04 04:37:18;;;;;;;14.38;5.00;;;;;;;4.77;82.92;102140.31;5028798;28;20117;-76
2021/04/04 04:39:44;;;;;;;11.82;4.18;;;;;;;4.78;83.11;102139.38;5027841;28;20052;-80
2021/04/04 04:42:12;;;;;;;16.20;4.45;;;;;;;4.73;82.98;102137.81;5028616;28;20481;-80
2021/04/04 04:44:42;;;;;;;20.58;5.35;;;;;;;4.70;82.82;102135.34;5015881;28;20045;-79
2021/04/04 04:47:13;;;;;;;16.75;4.28;;;;;;;4.69;83.24;102135.44;5027628;28;20044;-79
2021/04/04 04:49:43;;;;;;;16.48;4.95;;;;;;;4.73;83.60;102140.50;5034791;28;20056;-81
2021/04/04 04:52:09;;;;;;;12.70;4.78;;;;;;;4.79;83.65;102136.59;5035813;28;20071;-82
2021/04/04 04:54:34;;;;;;;16.38;4.15;;;;;;;4.81;83.28;102140.03;5030132;28;20050;-85
2021/04/04 04:57:01;;;;;;;14.10;4.53;;;;;;;4.74;83.91;102134.22;5026082;28;20052;-83
2021/04/04 04:59:28;;;;;;;13.63;4.75;;;;;;;4.69;83.68;102133.66;5023565;28;20095;-86
2021/04/04 05:01:55;;;;;;;13.60;4.22;;;;;;;4.71;84.05;102134.41;5020513;28;20429;-81
2021/04/04 05:04:21;;;;;;;16.33;4.05;;;;;;;4.73;83.88;102136.97;5027466;28;20037;-80
2021/04/04 05:06:51;;;;;;;14.43;4.45;;;;;;;4.76;83.71;102128.81;5026247;28;20049;-84
2021/04/04 05:09:17;;;;;;;22.55;4.90;;;;;;;4.69;83.67;102131.00;5025945;28;20053;-83
2021/04/04 05:11:48;;;;;;;18.08;4.43;;;;;;;4.65;84.38;102125.94;5034619;28;20329;-84
2021/04/04 05:14:14;;;;;;;11.82;4.35;;;;;;;4.67;84.31;102127.56;5043586;28;20095;-75
2021/04/04 05:16:41;;;;;;;16.27;4.63;;;;;;;4.64;84.48;102116.28;5025185;28;20053;-84
2021/04/04 05:19:10;;;;;;;13.30;4.10;;;;;;;4.63;84.72;102122.53;5014134;28;20068;-79
2021/04/04 05:21:38;;;;;;;17.48;4.35;;;;;;;4.66;85.03;102131.19;5023497;28;20068;-76
2021/04/04 05:24:06;;;;;;;17.67;4.65;;;;;;;4.66;84.85;102131.19;5012276;28;20428;-79
2021/04/04 05:26:37;;;;;;;21.02;4.70;;;;;;;4.65;85.62;102124.13;5018226;28;20057;-80
2021/04/04 05:29:07;;;;;;;13.55;4.45;;;;;;;4.60;86.60;102118.25;5026922;28;20051;-86
2021/04/04 05:31:33;;;;;;;18.42;5.22;;;;;;;4.56;87.23;102123.84;5039649;28;20128;-79
2021/04/04 05:34:00;;;;;;;17.92;5.35;;;;;;;4.53;87.79;102127.56;5026708;28;20152;-76
2021/04/04 05:36:26;;;;;;;18.08;5.40;;;;;;;4.53;87.94;102114.25;5024821;28;20041;-84
2021/04/04 05:38:56;;;;;;;16.67;5.40;;;;;;;4.60;87.58;102120.06;5027881;28;20490;-82
2021/04/04 05:41:24;;;;;;;17.05;5.40;;;;;;;4.60;87.77;102117.38;5026773;28;20045;-86
2021/04/04 05:43:59;;;;;;;17.58;4.95;;;;;;;4.67;87.63;102113.44;5020906;28;20436;-76
2021/04/04 05:46:36;;;;;;;16.80;5.22;;;;;;;4.63;87.95;102110.09;5017868;28;20055;-79
2021/04/04 05:49:16;;;;;;;16.50;5.35;;;;;;;4.62;88.02;102111.03;4995150;28;20506;-82
2021/04/04 05:51:51;;;;;;;16.75;5.15;;;;;;;4.57;88.45;102113.13;5019654;28;20142;-82
2021/04/04 05:54:28;;;;;;;16.58;5.03;;;;;;;4.62;88.32;102110.19;5027098;28;20049;-80
2021/04/04 05:56:58;;;;;;;21.63;4.95;;;;;;;4.63;88.45;102120.75;5019869;28;20076;-82
2021/04/04 05:59:41;;;;;;;15.52;4.75;;;;;;;4.61;88.51;102122.63;5024237;28;20099;-80
2021/04/04 06:02:13;;;;;;;14.07;5.15;;;;;;;4.65;88.87;102113.50;5026552;28;20623;-87
2021/04/04 06:05:01;;;;;;;15.30;4.97;;;;;;;4.66;89.03;102115.25;5023930;28;20115;-82
2021/04/04 06:08:02;;;;;;;15.48;4.95;;;;;;;4.56;89.59;102124.72;5018278;28;20128;-85
2021/04/04 06:10:55;;;;;;;14.27;4.88;;;;;;;4.59;89.65;102124.50;5022711;28;20128;-79
2021/04/04 06:13:48;;;;;;;15.20;4.88;;;;;;;4.58;90.09;102117.50;5029149;28;20049;-84
2021/04/04 06:16:29;;;;;;;15.27;4.95;;;;;;;4.58;89.87;102116.66;5011804;28;20056;-87
2021/04/04 06:19:14;;;;;;;17.02;5.07;;;;;;;4.56;90.06;102113.22;5008966;28;20097;-79
2021/04/04 06:21:59;;;;;;;19.60;5.38;;;;;;;4.63;90.18;102109.22;5013915;28;20755;-77
2021/04/04 06:24:39;;;;;;;12.07;4.05;;;;;;;4.65;89.56;102102.03;5024031;28;20045;-81
2021/04/04 06:27:41;;;;;;;14.35;5.40;;;;;;;4.62;89.96;102097.75;5022986;28;20083;-79
2021/04/04 06:33:24;;;;;;;14.02;4.93;;;;;;;4.70;89.56;102100.78;5016057;28;20080;-81
2021/04/04 06:36:04;;;;;;;13.73;4.68;;;;;;;4.73;89.38;102110.38;5020025;28;20052;-83
2021/04/04 06:38:32;;;;;;;15.10;4.25;;;;;;;4.74;89.08;102107.63;5018186;28;20053;-79
2021/04/04 06:41:29;;;;;;;11.35;4.82;;;;;;;4.80;88.99;102110.84;5019466;28;20432;-79
2021/04/04 06:44:13;;;;;;;11.90;4.93;;;;;;;4.75;88.35;102114.66;5020101;28;20045;-84
2021/04/04 06:46:54;;;;;;;13.85;4.30;;;;;;;4.78;88.30;102113.63;5024481;28;20077;-85
2021/04/04 06:49:30;;;;;;;10.60;3.58;;;;;;;4.78;87.89;102121.59;5025915;28;20065;-80
2021/04/04 06:52:32;;;;;;;13.20;3.65;;;;;;;4.86;87.65;102124.66;5025053;28;20052;-82
2021/04/04 06:55:08;;;;;;;10.73;3.28;;;;;;;4.83;87.82;102122.16;5024750;28;20041;-84
2021/04/04 06:57:39;;;;;;;10.57;3.25;;;;;;;4.83;87.69;102110.66;5040953;28;20405;-82
2021/04/04 07:00:12;;;;;;;10.90;3.15;;;;;;;4.84;87.66;102113.25;5029622;28;20723;-85
2021/04/04 07:02:48;;;;;;;10.73;3.78;;;;;;;4.93;87.33;102112.66;5023387;28;20052;-84
2021/04/04 07:05:15;;;;;;;13.85;3.75;;;;;;;4.90;87.37;102120.00;5030021;28;20037;-84
2021/04/04 07:08:06;;;;;;;8.93;3.53;;;;;;;4.87;87.63;102122.84;5026119;28;20044;-81
2021/04/04 07:10:53;;;;;;;8.82;3.33;;;;;;;4.91;87.14;102119.03;5030412;28;20143;-79
2021/04/04 07:13:28;;;;;;;14.80;4.38;;;;;;;4.91;87.25;102119.03;5029695;28;20049;-80
2021/04/04 07:16:02;;;;;;;10.02;3.92;;;;;;;4.97;87.04;102124.81;5028699;28;20469;-82
2021/04/04 07:18:48;;;;;;;12.40;3.47;;;;;;;5.02;86.94;102121.88;5030048;28;20144;-76
2021/04/04 07:21:13;;;;;;;14.60;3.60;;;;;;;4.97;86.84;102116.84;5026813;28;20037;-84
2021/04/04 07:23:55;;;;;;;10.45;3.45;;;;;;;4.98;87.23;102120.38;5027275;28;20051;-85
2021/04/04 07:26:36;;;;;;;13.43;2.80;;;;;;;5.04;86.81;102119.13;5026689;28;20041;-81
2021/04/04 07:29:28;;;;;;;7.63;2.75;;;;;;;5.00;86.15;102113.13;5028750;28;20037;-85
2021/04/04 07:32:43;;;;;;;9.10;2.55;;;;;;;4.98;85.98;102121.22;5021881;28;20439;-87
2021/04/04 07:35:10;;;;;;;9.02;2.83;;;;;;;5.14;86.39;102115.78;5021194;28;20060;-86
2021/04/04 07:37:44;;;;;;;8.65;2.65;;;;;;;5.24;85.96;102112.56;5025780;28;20650;-87
2021/04/04 07:40:26;;;;;;;12.13;3.35;;;;;;;5.16;86.14;102121.03;5031090;28;20041;-82
2021/04/04 07:43:17;;;;;;;10.85;3.20;;;;;;;5.16;86.55;102126.34;5020833;28;20096;-77
2021/04/04 07:45:50;;;;;;;11.52;3.00;;;;;;;5.06;85.93;102106.56;5024480;28;20057;-82
2021/04/04 07:48:30;;;;;;;11.38;3.55;;;;;;;5.09;87.37;102117.03;5029007;28;20482;-84
2021/04/04 07:51:14;;;;;;;7.30;3.42;;;;;;;5.06;87.96;102114.56;5025004;28;20058;-89
2021/04/04 07:54:07;;;;;;;9.60;3.28;;;;;;;5.09;88.31;102120.56;5028319;28;20525;-85
2021/04/04 07:56:49;;;;;;;8.77;3.10;;;;;;;5.10;87.65;102119.59;5023744;28;20041;-85
2021/04/04 07:59:26;;;;;;;7.40;2.97;;;;;;;5.06;88.05;102115.41;5027609;28;20095;-82
2021/04/04 08:02:09;;;;;;;10.20;3.28;;;;;;;5.10;87.18;102114.28;5032616;28;20041;-85
2021/04/04 08:05:00;;;;;;;10.10;3.25;;;;;;;5.14;87.03;102115.78;5026142;28;20148;-81
2021/04/04 08:07:48;;;;;;;10.50;3.75;;;;;;;5.14;85.49;102115.78;5023502;28;20370;-79
2021/04/04 08:10:39;;;;;;;6.35;2.50;;;;;;;5.15;85.16;102119.28;5026205;28;20050;-85
2021/04/04 08:13:07;;;;;;;8.25;2.92;;;;;;;5.11;85.02;102113.31;5024573;28;20052;-77
2021/04/04 08:15:49;;;;;;;10.65;3.03;;;;;;;5.22;85.70;102115.31;5029309;28;20486;-84
2021/04/04 08:18:14;;;;;;;7.10;2.85;;;;;;;5.22;85.43;102119.78;5032325;28;20052;-80
2021/04/04 08:20:52;;;;;;;11.02;3.60;;;;;;;5.28;85.00;102106.94;5026223;28;20045;-84
2021/04/04 08:23:45;;;;;;;11.32;4.25;;;;;;;5.39;84.63;102108.91;5013349;28;20042;-81
2021/04/04 08:26:51;;;;;;;8.82;3.33;;;;;;;5.40;83.50;102113.28;5017071;28;20049;-79
2021/04/04 08:29:23;;;;;;;10.50;2.88;;;;;;;5.36;82.82;102123.28;4986421;28;20053;-79
2021/04/04 08:32:00;;;;;;;11.95;3.65;;;;;;;5.41;83.58;102117.66;5028454;28;20076;-80
2021/04/04 08:34:33;;;;;;;6.85;3.03;;;;;;;5.39;83.31;102119.56;5036516;28;20116;-78
2021/04/04 08:37:27;;;;;;;10.63;3.03;;;;;;;5.40;83.64;102124.75;5036282;28;20045;-75
2021/04/04 08:40:00;;;;;;;6.78;3.03;;;;;;;5.43;83.91;102118.41;5045690;28;20102;-85
2021/04/04 08:42:30;;;;;;;9.68;2.75;;;;;;;5.44;82.94;102117.47;5024862;28;20072;-78
2021/04/04 08:45:05;;;;;;;8.20;2.58;;;;;;;5.47;82.97;102117.25;5010982;28;20057;-81
2021/04/04 08:47:36;;;;;;;5.95;2.78;;;;;;;5.57;81.65;102115.69;5024012;28;20379;-86
2021/04/04 08:50:10;;;;;;;8.88;3.25;;;;;;;5.54;80.34;102113.22;5031208;28;20037;-82
2021/04/04 08:52:43;;;;;;;7.05;2.80;;;;;;;5.59;81.56;102108.47;5025182;28;20060;-80
2021/04/04 08:55:11;;;;;;;5.75;2.58;;;;;;;5.53;81.35;102111.53;5030623;28;20041;-84
2021/04/04 08:57:41;;;;;;;7.43;2.88;;;;;;;5.63;81.94;102112.63;5048622;28;20045;-84
2021/04/04 09:00:11;;;;;;;5.80;2.40;;;;;;;5.64;81.02;102119.69;5027001;28;20543;-80
2021/04/04 09:02:45;;;;;;;8.38;2.63;;;;;;;5.68;80.24;102103.50;5038262;28;20451;-79
2021/04/04 09:05:12;;;;;;;8.25;3.08;;;;;;;5.67;80.69;102113.31;5030935;28;20091;-81
2021/04/04 09:07:44;;;;;;;9.23;2.95;;;;;;;5.69;81.23;102114.03;5046018;28;20110;-79
2021/04/04 09:10:15;;;;;;;8.00;3.28;;;;;;;5.72;81.06;102105.84;5023400;28;20041;-84
2021/04/04 09:12:42;;;;;;;9.10;2.92;;;;;;;5.68;81.35;102111.50;5026730;28;20045;-85
2021/04/04 09:15:13;;;;;;;7.13;3.28;;;;;;;5.72;81.56;102108.50;5022686;28;20049;-83
2021/04/04 09:17:49;;;;;;;6.05;2.13;;;;;;;5.75;80.89;102099.47;5027333;28;20052;-80
2021/04/04 09:20:16;;;;;;;7.43;3.05;;;;;;;5.71;81.01;102108.63;5022560;28;20076;-77
2021/04/04 09:22:50;;;;;;;10.25;3.53;;;;;;;5.70;80.19;102101.56;5022259;28;20061;-85
2021/04/04 09:25:18;;;;;;;9.05;3.45;;;;;;;5.65;80.39;102105.41;5045578;28;20044;-77
2021/04/04 09:27:45;;;;;;;9.68;3.83;;;;;;;5.60;80.57;102104.84;5009083;28;20086;-86
2021/04/04 09:30:34;;;;;;;8.00;3.60;;;;;;;5.62;80.01;102099.44;5014519;28;20052;-79
2021/04/04 09:33:03;;;;;;;;;;;;;;;5.64;78.54;102087.72;5017169;28;20402;-84
2021/04/04 09:35:35;;;;;;;;;;;;;;;5.62;78.63;102094.94;5027073;28;20004;-78
2021/04/04 09:38:09;;;;;;;12.05;3.90;;;;;;;5.65;78.49;102093.91;5021301;28;19914;-84
2021/04/04 09:40:35;;;;;;;9.75;3.55;;;;;;;5.78;78.70;102088.59;5007350;28;20133;-86
2021/04/04 09:43:11;;;;;;;8.88;3.45;;;;;;;5.78;76.51;102084.16;5029273;28;20524;-83
2021/04/04 09:45:37;;;;;;;16.90;5.80;;;;;;;5.84;77.09;102089.06;5027578;28;20063;-86
2021/04/04 09:48:20;;;;;;;13.05;4.38;;;;;;;5.88;76.08;102087.91;5027445;28;20509;-78
2021/04/04 09:51:03;;;;;;;12.50;4.82;;;;;;;5.88;75.77;102087.06;5024762;28;20049;-82
2021/04/04 09:53:35;;;;;;;8.48;3.88;;;;;;;5.87;75.35;102088.03;5039098;28;20053;-78
2021/04/04 09:56:07;;;;;;;11.13;3.78;;;;;;;5.93;75.85;102084.97;5026367;28;20048;-80
2021/04/04 09:58:37;;;;;;;14.60;6.10;;;;;;;6.03;75.68;102077.22;5026958;28;20041;-81
2021/04/04 10:01:12;;;;;;;;;;;;;;;6.02;74.88;102063.03;5033415;28;20042;-76
2021/04/04 10:03:38;;;;;;;10.35;5.25;;;;;;;6.00;75.76;102082.75;5019690;28;19913;-81
2021/04/04 10:06:10;;;;;;;11.55;4.20;;;;;;;5.97;75.07;102069.63;5028612;28;20052;-85
2021/04/04 10:08:36;;;;;;;13.25;4.82;;;;;;;6.03;74.89;102067.41;5026520;28;20516;-82
2021/04/04 10:11:13;;;;;;;13.52;4.47;;;;;;;6.08;75.40;102064.44;5025551;28;20049;-81
2021/04/04 10:13:41;;;;;;;9.88;3.95;;;;;;;6.12;75.22;102065.91;5016647;28;20128;-88
2021/04/04 10:16:22;;;;;;;9.48;3.65;;;;;;;6.09;74.68;102066.13;5011217;28;20184;-85
2021/04/04 10:19:08;;;;;;;17.58;8.23;;;;;;;6.14;75.53;102068.50;5010072;28;20049;-85
2021/04/04 10:21:39;;;;;;;13.75;5.70;;;;;;;6.12;75.27;102054.41;5005877;28;20052;-83
2021/04/04 10:24:24;;;;;;;14.98;6.90;;;;;;;6.18;75.36;102057.50;5018369;28;20046;-83
2021/04/04 10:27:20;;;;;;;9.55;3.67;;;;;;;6.14;73.85;102060.50;5024761;28;20046;-80
2021/04/04 10:29:48;;;;;;;6.47;3.78;;;;;;;6.25;74.60;102044.63;5028965;28;20049;-81
2021/04/04 10:32:25;;;;;;;10.10;3.88;;;;;;;6.20;74.23;102046.75;5024376;28;20075;-77
2021/04/04 10:34:51;;;;;;;15.10;4.75;;;;;;;6.26;74.71;102046.31;5024381;28;20037;-80
2021/04/04 10:37:25;;;;;;;11.88;4.30;;;;;;;6.26;74.86;102043.66;5026132;28;20445;-78
2021/04/04 10:40:02;;;;;;;12.07;5.20;;;;;;;6.25;74.41;102039.28;5027893;28;20401;-80
2021/04/04 10:42:29;;;;;;;16.67;7.63;;;;;;;6.32;74.91;102048.56;5026463;28;20052;-83
2021/04/04 10:45:15;;;;;;;10.88;4.70;;;;;;;6.45;75.04;102036.09;5029193;28;20052;-84
2021/04/04 10:47:44;;;;;;;10.15;4.75;;;;;;;6.48;74.30;102027.88;5026338;28;20497;-83
2021/04/04 10:50:16;;;;;;;12.68;4.72;;;;;;;6.46;74.03;102029.78;5020992;28;20052;-83
2021/04/04 10:52:44;;;;;;;11.57;4.57;;;;;;;6.56;74.47;102022.03;5023234;28;20065;-79
2021/04/04 10:55:12;;;;;;;11.07;4.53;;;;;;;6.48;74.16;102025.22;5025558;28;20045;-80
2021/04/04 10:57:39;;;;;;;10.18;4.43;;;;;;;6.44;74.09;102022.84;5024151;28;20095;-76
2021/04/04 11:00:10;;;;;;;9.73;4.72;;;;;;;6.38;73.98;102008.13;5032066;28;20045;-83
2021/04/04 11:02:37;;;;;;;17.50;8.73;;;;;;;6.51;75.05;102005.47;5026246;28;20048;-81
2021/04/04 11:05:06;;;;;;;11.50;4.78;;;;;;;6.48;74.35;102005.69;5028136;28;20045;-78
2021/04/04 11:07:33;;;;;;;13.10;4.80;;;;;;;6.45;74.20;102011.25;5010880;28;20050;-80
2021/04/04 11:09:58;;;;;;;16.25;7.43;;;;;;;6.60;73.57;101998.63;5024090;28;20069;-83
2021/04/04 11:12:30;;;;;;;10.35;4.60;;;;;;;6.63;73.36;102001.09;5023339;28;20548;-75
2021/04/04 11:15:01;;;;;;;12.15;5.88;;;;;;;6.59;73.90;102008.47;5039314;28;20452;-84
2021/04/04 11:17:29;;;;;;;16.70;6.47;;;;;;;6.66;74.04;102003.53;5027421;28;20049;-77
2021/04/04 11:19:56;;;;;;;15.07;5.38;;;;;;;6.67;73.99;102003.41;5026304;28;20517;-83
2021/04/04 11:22:23;;;;;;;11.60;5.55;;;;;;;6.59;73.70;102007.59;5025255;28;20053;-76
2021/04/04 11:25:01;;;;;;;13.52;4.82;;;;;;;6.58;74.54;101998.72;5028633;28;20049;-80
2021/04/04 11:27:44;;;;;;;11.27;4.93;;;;;;;6.61;74.62;101992.34;5027509;28;20052;-81
2021/04/04 11:30:14;;;;;;;12.98;6.68;;;;;;;6.58;74.18;101989.88;5023149;28;20057;-81
2021/04/04 11:32:45;;;;;;;;;;;;;;;6.60;74.35;101987.97;5021647;28;20064;-81
2021/04/04 11:35:14;;;;;;;16.55;10.60;;;;;;;6.52;75.45;101978.69;5015974;28;19956;-76
2021/04/04 11:37:43;;;;;;;13.15;7.43;;;;;;;6.59;75.05;101972.91;5027822;28;20035;-80
2021/04/04 11:40:23;;;;;;;14.95;7.13;;;;;;;6.48;74.32;101968.38;5015647;28;20057;-78
2021/04/04 11:43:09;;;;;;;12.25;5.57;;;;;;;6.49;75.86;101967.41;5019727;28;20302;-80
2021/04/04 11:45:39;;;;;;;16.25;7.32;;;;;;;6.60;75.27;101964.81;5021844;28;20079;-78
2021/04/04 11:48:23;;;;;;;;;;;;;;;6.65;75.02;101951.16;5017949;28;20073;-81
2021/04/04 11:50:49;;;;;;;30.05;6.38;;;;;;;6.56;75.27;101955.34;5032341;28;19929;-80
2021/04/04 11:53:47;;;;;;;13.73;5.78;;;;;;;6.71;75.53;101954.22;5043660;28;20048;-82
2021/04/04 11:56:45;;;;;;;9.45;4.88;;;;;;;6.56;74.04;101955.34;5021702;28;20053;-80
2021/04/04 11:59:12;;;;;;;12.40;5.03;;;;;;;6.58;74.00;101955.22;5039954;28;20402;-75